ΕΜΥ, Εθνική Μετεωρολογική Υπηρεσία - Δελτία Καιρού, Προγνώσεις

ΑΕΡΟΝΑΥΤΙΛΙΑ

GREEK AIRPORTS CODES

LGAV 240820Z 20004KT 150V250 9999 FEW025 27/16 Q1013 RMK FEW070 BKN180 Q1013.5 NOSIG=

EUROPEAN AIRPORTS CODES

LFPO 240830Z 18010KT CAVOK 13/10 Q1006 NOSIG=